Time;durP1;ratioP1;P1;durP2;ratioP2;P2;SDS_P1;SDS_P2;PMS_P1;PMS_P2;Temp;Humidity;BMP_temperature;BMP_pressure;BME280_temperature;BME280_humidity;BME280_pressure;Samples;Min_cycle;Max_cycle;Signal;HPM_P1;HPM_P2
2021/07/09 00:01:35;;;;;;;5.33;4.03;;;;;;;13.88;90.20;95922.50;4975689;28;20301;-79
2021/07/09 00:04:00;;;;;;;5.77;4.40;;;;;;;13.96;90.09;95921.69;4959954;28;20223;-77
2021/07/09 00:06:26;;;;;;;6.03;4.53;;;;;;;13.89;90.27;95916.31;4979305;28;20211;-79
2021/07/09 00:08:51;;;;;;;7.53;4.20;;;;;;;13.85;90.80;95921.03;4960521;28;20192;-79
2021/07/09 00:11:17;;;;;;;6.67;4.23;;;;;;;13.86;90.82;95927.88;4961641;28;20173;-80
2021/07/09 00:13:43;;;;;;;4.90;4.50;;;;;;;13.84;91.30;95922.00;4960528;28;20204;-79
2021/07/09 00:16:10;;;;;;;6.40;4.63;;;;;;;13.88;90.80;95927.72;4977515;28;20191;-79
2021/07/09 00:18:36;;;;;;;4.90;4.50;;;;;;;13.82;91.04;95931.78;4962488;28;20267;-79
2021/07/09 00:21:01;;;;;;;6.87;4.90;;;;;;;13.84;90.99;95940.28;4976856;28;20239;-79
2021/07/09 00:23:27;;;;;;;5.33;4.90;;;;;;;13.89;90.67;95945.84;4961388;28;20211;-79
2021/07/09 00:25:52;;;;;;;6.13;4.63;;;;;;;13.87;91.01;95950.41;4977879;28;20212;-79
2021/07/09 00:28:17;;;;;;;5.23;4.57;;;;;;;13.87;90.97;95958.25;4978013;28;20593;-78
2021/07/09 00:30:43;;;;;;;6.27;4.40;;;;;;;13.89;90.51;95958.91;4976937;28;20211;-79
2021/07/09 00:33:08;;;;;;;4.33;3.93;;;;;;;13.91;90.65;95963.16;4961134;28;20212;-79
2021/07/09 00:35:33;;;;;;;5.20;4.23;;;;;;;13.83;90.48;95956.91;4978500;28;20562;-79
2021/07/09 00:37:58;;;;;;;6.77;4.00;;;;;;;13.81;90.49;95963.28;4961450;28;20204;-79
2021/07/09 00:40:24;;;;;;;5.20;4.40;;;;;;;13.91;90.12;95960.53;4959740;28;20243;-77
2021/07/09 00:42:49;;;;;;;9.00;4.57;;;;;;;13.81;90.43;95960.66;4960636;28;20216;-80
2021/07/09 00:45:15;;;;;;;7.13;3.67;;;;;;;13.85;90.20;95970.63;4958142;29;20197;-79
2021/07/09 00:47:44;;;;;;;4.03;3.50;;;;;;;13.90;89.41;95959.72;4974041;28;20177;-78
2021/07/09 00:50:10;;;;;;;3.83;3.30;;;;;;;13.87;88.90;95962.66;4957611;29;20173;-79
2021/07/09 00:52:36;;;;;;;4.83;3.80;;;;;;;13.84;89.17;95953.31;4970104;28;20232;-79
2021/07/09 00:55:01;;;;;;;4.80;3.77;;;;;;;13.83;89.35;95956.09;4976426;28;20231;-79
2021/07/09 00:57:27;;;;;;;6.00;3.83;;;;;;;13.79;89.27;95953.00;4977913;28;20191;-78
2021/07/09 00:59:53;;;;;;;3.83;3.27;;;;;;;13.79;89.07;95953.00;4972678;28;20603;-78
2021/07/09 01:02:18;;;;;;;4.97;3.60;;;;;;;13.84;88.62;95953.31;4945709;28;20208;-78
2021/07/09 01:04:43;;;;;;;5.07;3.67;;;;;;;13.81;88.73;95943.22;4975596;28;20319;-79
2021/07/09 01:07:09;;;;;;;3.70;3.10;;;;;;;13.79;88.67;95942.56;4976233;28;20308;-78
2021/07/09 01:09:34;;;;;;;4.30;3.40;;;;;;;13.86;88.13;95946.16;4960480;28;20196;-79
2021/07/09 01:12:03;;;;;;;5.03;3.40;;;;;;;13.85;87.98;95948.91;4958813;28;20200;-79
2021/07/09 01:14:28;;;;;;;4.93;3.47;;;;;;;13.77;88.17;95954.91;4974917;28;20188;-79
2021/07/09 01:16:54;;;;;;;4.93;3.37;;;;;;;13.75;88.25;95959.50;4975865;28;20180;-79
2021/07/09 01:19:21;;;;;;;5.63;3.73;;;;;;;13.73;88.59;95961.44;4976063;28;20183;-78
2021/07/09 01:21:47;;;;;;;4.20;3.80;;;;;;;13.69;89.00;95948.84;4975179;28;20294;-80
2021/07/09 01:24:14;;;;;;;5.33;3.43;;;;;;;13.75;88.46;95946.44;4974157;28;20667;-80
2021/07/09 01:26:40;;;;;;;6.00;4.13;;;;;;;13.72;88.69;95943.34;4975113;28;20192;-80
2021/07/09 01:29:06;;;;;;;4.30;3.07;;;;;;;13.70;88.96;95935.66;4959509;28;20188;-80
2021/07/09 01:31:32;;;;;;;3.43;3.17;;;;;;;13.66;88.86;95939.56;4958058;28;20624;-79
2021/07/09 01:33:57;;;;;;;3.87;3.40;;;;;;;13.66;88.50;95939.56;4956536;28;20184;-80
2021/07/09 01:36:23;;;;;;;4.57;3.73;;;;;;;13.59;89.06;95933.31;4958629;28;20254;-81
2021/07/09 01:38:49;;;;;;;5.03;4.10;;;;;;;13.56;89.23;95936.25;4958023;28;20176;-81
2021/07/09 01:41:16;;;;;;;4.37;3.83;;;;;;;13.62;89.26;95937.44;4973904;28;20209;-80
2021/07/09 01:43:42;;;;;;;3.87;3.57;;;;;;;13.51;89.40;95931.47;4958091;28;20234;-80
2021/07/09 01:46:07;;;;;;;6.00;3.40;;;;;;;13.54;89.26;95932.97;4973191;28;20652;-80
2021/07/09 01:48:32;;;;;;;4.37;3.57;;;;;;;13.52;89.34;95929.72;4957856;28;20660;-80
2021/07/09 01:50:57;;;;;;;4.40;3.47;;;;;;;13.49;89.20;95932.63;4973835;28;20181;-79
2021/07/09 01:53:23;;;;;;;5.47;3.63;;;;;;;13.43;89.74;95934.09;4957980;28;20212;-80
2021/07/09 01:55:48;;;;;;;5.83;3.70;;;;;;;13.41;89.84;95938.63;4969663;28;20287;-79
2021/07/09 01:58:14;;;;;;;4.10;3.70;;;;;;;13.50;89.00;95929.84;4957233;28;20187;-79
2021/07/09 02:00:39;;;;;;;4.17;3.37;;;;;;;13.48;89.00;95923.16;4973224;28;20209;-79
2021/07/09 02:03:05;;;;;;;4.63;3.73;;;;;;;13.42;88.37;95927.19;4973591;28;20586;-80
2021/07/09 02:05:30;;;;;;;3.73;3.43;;;;;;;13.41;89.10;95929.97;4958196;28;20554;-80
2021/07/09 02:07:56;;;;;;;4.00;3.50;;;;;;;13.42;89.39;95926.38;4987420;28;20199;-80
2021/07/09 02:10:24;;;;;;;4.97;3.50;;;;;;;13.37;88.84;95929.47;4957246;28;20180;-79
2021/07/09 02:12:54;;;;;;;4.17;3.57;;;;;;;13.36;89.01;95924.41;4973322;28;20219;-80
2021/07/09 02:15:22;;;;;;;3.53;3.23;;;;;;;13.33;89.26;95921.13;4957686;28;20199;-79
2021/07/09 02:17:47;;;;;;;6.30;3.60;;;;;;;13.36;88.92;95916.59;4972845;28;20188;-79
2021/07/09 02:20:16;;;;;;;3.30;3.00;;;;;;;13.39;88.65;95914.47;4957018;28;20200;-78
2021/07/09 02:22:41;;;;;;;4.90;3.53;;;;;;;13.38;88.26;95912.03;4957387;28;20287;-78
2021/07/09 02:25:07;;;;;;;4.93;3.43;;;;;;;13.38;88.72;95912.03;4957917;28;20629;-79
2021/07/09 02:27:34;;;;;;;4.27;3.50;;;;;;;13.35;88.13;95913.16;4972710;28;20332;-79
2021/07/09 02:30:00;;;;;;;8.10;3.30;;;;;;;13.29;88.40;95909.38;4965226;28;20188;-78
2021/07/09 02:32:25;;;;;;;4.07;3.23;;;;;;;13.37;88.27;95918.22;4977125;28;20225;-79
2021/07/09 02:34:51;;;;;;;6.00;3.60;;;;;;;13.35;88.07;95925.41;4977027;28;20191;-79
2021/07/09 02:37:16;;;;;;;3.80;3.43;;;;;;;13.39;88.41;95926.72;4960782;28;20185;-80
2021/07/09 02:39:41;;;;;;;4.73;3.50;;;;;;;13.38;88.09;95930.28;4959485;28;20203;-79
2021/07/09 02:42:07;;;;;;;5.90;3.90;;;;;;;13.35;88.54;95922.78;4976508;28;20215;-79
2021/07/09 02:44:34;;;;;;;4.27;3.87;;;;;;;13.32;88.54;95929.09;4977953;28;20550;-80
2021/07/09 02:46:59;;;;;;;5.80;4.00;;;;;;;13.30;88.84;95933.66;4960924;28;20609;-78
2021/07/09 02:49:25;;;;;;;6.87;4.27;;;;;;;13.40;88.08;95939.59;4953098;28;20296;-79
2021/07/09 02:51:51;;;;;;;4.43;3.97;;;;;;;13.36;87.94;95937.47;4972823;28;20202;-78
2021/07/09 02:54:16;;;;;;;4.37;3.90;;;;;;;13.27;88.29;95945.25;4960124;28;20223;-79
2021/07/09 02:56:41;;;;;;;5.50;3.93;;;;;;;13.37;88.41;95944.31;4960870;28;20590;-79
2021/07/09 02:59:07;;;;;;;5.03;4.03;;;;;;;13.36;88.17;95946.09;4974841;28;20492;-79
2021/07/09 03:01:33;;;;;;;5.57;3.83;;;;;;;13.34;88.21;95940.22;4976362;28;20240;-79
2021/07/09 03:03:59;;;;;;;3.90;3.60;;;;;;;13.38;88.00;95938.13;4976701;28;20549;-79
2021/07/09 03:06:24;;;;;;;4.30;3.57;;;;;;;13.29;88.05;95943.28;4977142;28;20181;-78
2021/07/09 03:08:50;;;;;;;4.77;3.60;;;;;;;13.31;88.15;95949.16;4976992;28;20641;-80
2021/07/09 03:11:16;;;;;;;4.40;3.60;;;;;;;13.35;87.69;95948.88;4976429;28;20204;-79
2021/07/09 03:13:41;;;;;;;4.83;3.93;;;;;;;13.37;87.14;95941.69;4982876;28;20208;-79
2021/07/09 03:16:07;;;;;;;5.30;3.47;;;;;;;13.33;87.27;95949.00;4978766;28;20188;-79
2021/07/09 03:18:32;;;;;;;4.40;3.30;;;;;;;13.29;87.78;95953.72;4978089;28;20209;-79
2021/07/09 03:20:58;;;;;;;5.23;3.50;;;;;;;13.33;87.61;95951.59;4976339;28;20327;-79
2021/07/09 03:23:23;;;;;;;6.10;3.50;;;;;;;13.41;87.41;95946.44;4976566;28;20204;-79
2021/07/09 03:25:48;;;;;;;4.27;3.00;;;;;;;13.38;87.11;95959.81;4976266;28;20181;-79
2021/07/09 03:28:14;;;;;;;3.77;3.20;;;;;;;13.31;87.40;95951.78;4960199;28;20824;-79
2021/07/09 03:30:39;;;;;;;5.90;3.10;;;;;;;13.31;87.42;95954.38;4975895;28;20235;-78
2021/07/09 03:33:04;;;;;;;4.23;3.10;;;;;;;13.34;87.63;95961.09;4957431;28;20740;-79
2021/07/09 03:35:30;;;;;;;4.10;3.30;;;;;;;13.32;87.84;95963.84;4959763;28;20655;-79
2021/07/09 03:37:55;;;;;;;4.13;3.23;;;;;;;13.31;87.48;95959.59;4989132;28;20184;-79
2021/07/09 03:40:20;;;;;;;4.93;3.40;;;;;;;13.25;87.56;95965.44;4975796;28;20208;-78
2021/07/09 03:42:46;;;;;;;3.90;3.00;;;;;;;13.30;87.65;95964.97;4973219;28;20274;-79
2021/07/09 03:45:11;;;;;;;3.50;3.00;;;;;;;13.31;87.65;95966.59;4959014;28;20235;-78
2021/07/09 03:47:37;;;;;;;4.70;3.57;;;;;;;13.29;87.61;95964.16;4975424;28;20645;-79
2021/07/09 03:50:05;;;;;;;3.90;3.07;;;;;;;13.27;87.57;95966.09;4976750;28;20276;-79
2021/07/09 03:52:30;;;;;;;5.17;3.03;;;;;;;13.26;87.27;95964.47;4974256;28;20208;-80
2021/07/09 03:54:55;;;;;;;6.43;3.13;;;;;;;13.28;87.29;95961.72;4974586;28;20316;-78
2021/07/09 03:57:20;;;;;;;3.67;3.20;;;;;;;13.27;87.75;95962.69;4958894;28;20597;-79
2021/07/09 03:59:46;;;;;;;3.90;3.20;;;;;;;13.31;87.50;95972.63;4974964;28;20541;-78
2021/07/09 04:02:11;;;;;;;3.23;2.93;;;;;;;13.24;87.08;95965.56;4959660;28;20211;-80
2021/07/09 04:04:36;;;;;;;3.17;2.87;;;;;;;13.24;87.89;95970.78;4957611;28;20223;-80
2021/07/09 04:07:02;;;;;;;3.37;3.03;;;;;;;13.27;87.63;95975.72;4982927;28;20192;-79
2021/07/09 04:09:27;;;;;;;3.50;3.20;;;;;;;13.17;87.36;95978.41;4975889;28;20254;-79
2021/07/09 04:11:52;;;;;;;4.97;3.20;;;;;;;13.24;87.08;95976.81;4974912;28;20208;-79
2021/07/09 04:14:18;;;;;;;4.33;3.23;;;;;;;13.19;87.58;95984.31;4974501;28;20195;-79
2021/07/09 04:16:43;;;;;;;4.10;3.10;;;;;;;13.19;87.37;95983.47;4977635;28;20276;-79
2021/07/09 04:19:08;;;;;;;5.40;3.30;;;;;;;13.24;87.59;95986.44;4977673;28;20187;-80
2021/07/09 04:21:34;;;;;;;6.57;3.33;;;;;;;13.18;88.06;96000.06;4976172;28;20672;-80
2021/07/09 04:23:59;;;;;;;4.70;3.00;;;;;;;13.17;88.33;95995.84;4975387;28;20550;-80
2021/07/09 04:26:24;;;;;;;6.37;3.90;;;;;;;13.18;88.83;95993.06;4947056;28;20192;-79
2021/07/09 04:28:50;;;;;;;4.77;3.30;;;;;;;13.15;88.38;95995.97;4975984;28;20583;-80
2021/07/09 04:31:15;;;;;;;3.73;3.13;;;;;;;13.16;88.77;96000.19;4958340;28;20589;-80
2021/07/09 04:33:43;;;;;;;4.67;4.13;;;;;;;13.11;89.11;95999.88;4958615;28;20326;-80
2021/07/09 04:36:08;;;;;;;4.63;3.63;;;;;;;13.10;89.15;96000.84;4959086;28;20208;-80
2021/07/09 04:38:34;;;;;;;4.40;3.30;;;;;;;13.08;89.02;96009.78;4976260;28;20589;-81
2021/07/09 04:40:59;;;;;;;4.57;4.00;;;;;;;13.08;89.10;96008.00;4958120;28;20215;-80
2021/07/09 04:43:24;;;;;;;5.70;4.27;;;;;;;13.12;89.17;96011.94;4957569;28;20222;-80
2021/07/09 04:45:49;;;;;;;4.80;4.07;;;;;;;13.08;89.34;96009.78;4972191;28;20648;-80
2021/07/09 04:48:15;;;;;;;5.60;4.10;;;;;;;13.03;89.61;96012.84;4973450;28;20184;-79
2021/07/09 04:50:40;;;;;;;4.73;4.00;;;;;;;13.08;89.59;96013.22;4957468;28;20176;-80
2021/07/09 04:53:05;;;;;;;4.40;4.00;;;;;;;13.14;89.60;95998.72;4972688;28;20232;-80
2021/07/09 04:55:31;;;;;;;5.30;4.07;;;;;;;13.00;89.88;96013.16;4973493;28;20192;-81
2021/07/09 04:57:56;;;;;;;5.10;4.30;;;;;;;13.05;90.01;96009.09;4952610;28;20649;-80
2021/07/09 05:00:22;;;;;;;4.80;4.13;;;;;;;13.08;89.97;96013.22;4972474;28;20205;-80
2021/07/09 05:02:47;;;;;;;5.10;4.20;;;;;;;13.05;90.60;96008.28;4956922;28;20205;-80
2021/07/09 05:05:14;;;;;;;6.57;4.50;;;;;;;13.00;90.53;96015.75;4972879;28;20264;-79
2021/07/09 05:07:39;;;;;;;5.00;4.47;;;;;;;13.11;90.38;96023.31;4954339;28;20186;-80
2021/07/09 05:10:05;;;;;;;5.57;4.50;;;;;;;13.10;90.18;96021.69;4975417;28;20243;-81
2021/07/09 05:12:30;;;;;;;5.23;4.37;;;;;;;13.19;89.87;96020.81;4972612;28;20213;-80
2021/07/09 05:14:56;;;;;;;6.83;4.53;;;;;;;13.14;90.24;96016.97;4956722;28;20191;-80
2021/07/09 05:17:21;;;;;;;4.70;4.23;;;;;;;13.15;90.06;96010.78;4973228;28;20180;-81
2021/07/09 05:19:47;;;;;;;7.33;4.40;;;;;;;13.21;90.13;96018.88;4971852;28;20199;-80
2021/07/09 05:22:12;;;;;;;5.07;3.97;;;;;;;13.27;90.08;96027.88;4972616;28;20696;-79
2021/07/09 05:24:38;;;;;;;6.80;4.13;;;;;;;13.28;89.77;96019.91;4956760;28;20264;-80
2021/07/09 05:27:05;;;;;;;6.03;4.27;;;;;;;13.30;89.67;96022.34;4972472;28;20576;-81
2021/07/09 05:29:30;;;;;;;4.97;4.47;;;;;;;13.31;89.39;96029.19;4972016;28;20197;-78
2021/07/09 05:31:55;;;;;;;9.37;4.93;;;;;;;13.29;89.96;96029.34;4950338;28;20348;-78
2021/07/09 05:34:21;;;;;;;5.40;4.60;;;;;;;13.20;89.68;96022.44;4969033;28;20195;-79
2021/07/09 05:36:46;;;;;;;6.23;4.80;;;;;;;13.38;89.52;96032.03;4972877;28;20188;-78
2021/07/09 05:39:15;;;;;;;5.57;4.97;;;;;;;13.36;89.45;96033.97;4970262;28;20908;-79
2021/07/09 05:41:40;;;;;;;5.43;4.93;;;;;;;13.39;89.67;96041.47;4960313;28;20215;-79
2021/07/09 05:44:06;;;;;;;5.93;5.33;;;;;;;13.43;89.14;96042.81;4987798;28;20604;-78
2021/07/09 05:46:31;;;;;;;5.97;5.30;;;;;;;13.48;89.37;96044.00;4971855;28;20191;-79
2021/07/09 05:48:56;;;;;;;5.80;4.93;;;;;;;13.61;88.70;96033.16;4971325;28;20187;-79
2021/07/09 05:51:22;;;;;;;6.53;4.80;;;;;;;13.67;88.16;96035.13;4955449;29;20193;-80
2021/07/09 05:53:47;;;;;;;6.83;4.87;;;;;;;13.75;88.01;96037.78;4973996;28;20203;-79
2021/07/09 05:56:12;;;;;;;5.90;5.27;;;;;;;13.73;87.89;96044.97;4955892;28;20191;-79
2021/07/09 05:58:38;;;;;;;7.67;5.10;;;;;;;13.81;87.16;96046.81;4955776;28;20185;-81
2021/07/09 06:01:03;;;;;;;8.87;5.80;;;;;;;13.81;87.07;96047.63;4970165;28;20562;-79
2021/07/09 06:03:28;;;;;;;7.83;5.60;;;;;;;13.87;87.29;96049.63;4962170;28;20215;-79
2021/07/09 06:05:53;;;;;;;6.83;6.07;;;;;;;13.94;87.17;96052.41;4984482;28;20199;-78
2021/07/09 06:08:19;;;;;;;7.90;5.47;;;;;;;14.02;86.72;96055.06;4956545;28;20229;-78
2021/07/09 06:10:44;;;;;;;6.63;5.77;;;;;;;14.21;86.84;96055.78;4955558;28;20211;-78
2021/07/09 06:13:09;;;;;;;6.77;6.07;;;;;;;14.23;86.36;96052.06;4971318;28;20219;-80
2021/07/09 06:15:35;;;;;;;8.33;5.53;;;;;;;14.48;85.54;96052.16;4954455;28;20196;-79
2021/07/09 06:18:00;;;;;;;5.63;5.13;;;;;;;14.58;84.37;96055.47;4972626;28;20192;-79
2021/07/09 06:20:25;;;;;;;8.40;5.33;;;;;;;14.61;84.74;96055.13;4973187;28;20295;-79
2021/07/09 06:22:51;;;;;;;6.33;5.70;;;;;;;14.72;84.75;96053.03;4970796;28;20685;-77
2021/07/09 06:25:16;;;;;;;5.80;5.30;;;;;;;14.87;84.06;96058.44;4972105;28;20185;-78
2021/07/09 06:27:42;;;;;;;6.27;5.20;;;;;;;14.91;83.27;96066.78;4956083;28;20185;-78
2021/07/09 06:30:08;;;;;;;5.90;5.10;;;;;;;14.99;82.86;96064.19;4974684;28;20204;-78
2021/07/09 06:32:34;;;;;;;6.43;5.60;;;;;;;15.12;83.20;96066.31;5002998;28;20284;-78
2021/07/09 06:34:59;;;;;;;5.32;4.82;;;;;;;15.50;81.35;96062.22;4971350;28;20181;-79
2021/07/09 06:37:24;;;;;;;5.97;4.90;;;;;;;15.51;80.07;96066.47;4971899;28;20598;-78
2021/07/09 06:39:50;;;;;;;7.17;5.00;;;;;;;15.73;77.99;96078.09;4972880;28;20785;-78
2021/07/09 06:42:15;;;;;;;5.18;4.70;;;;;;;15.67;78.97;96076.13;4972475;28;20231;-78
2021/07/09 06:44:41;;;;;;;6.63;4.93;;;;;;;15.64;79.14;96076.47;4967119;28;20669;-79
2021/07/09 06:47:06;;;;;;;5.45;4.50;;;;;;;15.50;79.78;96075.31;4970172;28;20187;-78
2021/07/09 06:49:31;;;;;;;6.40;5.03;;;;;;;15.27;80.09;96077.75;4973328;28;20316;-78
2021/07/09 06:51:57;;;;;;;5.90;4.90;;;;;;;15.29;80.01;96073.19;4972893;28;20200;-77
2021/07/09 06:54:22;;;;;;;5.10;4.70;;;;;;;15.28;80.82;96084.63;4970120;28;20184;-78
2021/07/09 06:56:47;;;;;;;6.32;5.15;;;;;;;15.21;80.45;96088.91;4972690;28;20212;-78
2021/07/09 06:59:13;;;;;;;6.85;4.93;;;;;;;15.28;80.30;96085.47;4956530;28;20183;-78
2021/07/09 07:01:38;;;;;;;6.78;5.93;;;;;;;15.33;79.94;96076.28;4973547;28;20687;-76
2021/07/09 07:04:05;;;;;;;5.82;5.10;;;;;;;15.25;78.93;96080.53;4974157;28;20271;-77
2021/07/09 07:06:30;;;;;;;6.20;5.55;;;;;;;15.28;80.06;96082.00;4972885;28;20197;-77
2021/07/09 07:08:56;;;;;;;5.70;5.20;;;;;;;15.26;79.91;96084.78;4975510;28;20185;-77
2021/07/09 07:11:21;;;;;;;8.18;5.63;;;;;;;15.42;79.80;96085.78;4973921;28;20184;-77
2021/07/09 07:13:46;;;;;;;6.53;5.25;;;;;;;15.45;79.35;96086.25;4972760;28;20197;-77
2021/07/09 07:16:12;;;;;;;6.47;5.25;;;;;;;15.28;79.21;96089.84;4953860;28;20192;-77
2021/07/09 07:18:37;;;;;;;5.68;5.00;;;;;;;15.22;79.89;96088.72;4958183;28;20457;-76
2021/07/09 07:21:02;;;;;;;5.72;5.20;;;;;;;15.33;79.96;96092.81;4974735;28;20200;-78
2021/07/09 07:23:28;;;;;;;8.50;5.38;;;;;;;15.34;79.73;96089.22;4974315;28;20243;-77
2021/07/09 07:25:53;;;;;;;6.10;5.38;;;;;;;15.50;79.34;96099.69;4973037;28;20251;-75
2021/07/09 07:28:20;;;;;;;7.43;5.88;;;;;;;15.41;79.07;96100.66;4975692;28;20312;-76
2021/07/09 07:30:45;;;;;;;6.63;5.90;;;;;;;15.55;79.17;96102.63;4955046;28;20212;-77
2021/07/09 07:33:10;;;;;;;7.40;5.55;;;;;;;15.69;78.77;96101.16;4958088;28;20231;-79
2021/07/09 07:35:37;;;;;;;5.60;5.10;;;;;;;15.93;78.00;96108.16;4976086;28;20256;-77
2021/07/09 07:38:04;;;;;;;6.03;5.00;;;;;;;16.10;77.50;96112.38;4973252;28;20189;-76
2021/07/09 07:40:29;;;;;;;8.43;5.57;;;;;;;15.87;77.37;96114.06;4974247;28;20230;-75
2021/07/09 07:42:54;;;;;;;7.22;5.38;;;;;;;15.97;77.74;96109.44;4955584;28;20782;-76
2021/07/09 07:45:20;;;;;;;5.90;5.28;;;;;;;15.84;77.52;96112.59;4973074;28;20211;-76
2021/07/09 07:47:45;;;;;;;5.68;5.18;;;;;;;16.23;77.14;96117.09;4972761;28;20200;-76
2021/07/09 07:50:12;;;;;;;6.40;5.80;;;;;;;16.52;76.00;96110.41;4973928;28;20316;-77
2021/07/09 07:52:38;;;;;;;7.05;5.43;;;;;;;16.75;74.50;96118.38;4973906;28;20200;-77
2021/07/09 07:55:04;;;;;;;8.27;5.45;;;;;;;17.23;73.24;96118.09;4975515;28;20181;-76
2021/07/09 07:57:29;;;;;;;7.28;5.28;;;;;;;17.61;72.51;96106.81;4973716;28;20187;-76
2021/07/09 07:59:54;;;;;;;6.20;5.55;;;;;;;18.05;69.99;96118.25;4972520;28;20188;-76
2021/07/09 08:02:20;;;;;;;5.57;5.07;;;;;;;18.76;68.47;96113.34;4973630;28;20216;-76
2021/07/09 08:04:47;;;;;;;5.32;4.82;;;;;;;19.92;63.71;96114.88;4975920;28;20644;-76
2021/07/09 08:07:14;;;;;;;6.72;4.85;;;;;;;20.53;61.82;96115.06;4956237;28;20189;-76
2021/07/09 08:09:39;;;;;;;5.70;4.07;;;;;;;21.06;60.09;96114.47;4973553;28;20194;-77
2021/07/09 08:12:07;;;;;;;6.68;4.05;;;;;;;21.30;58.66;96123.69;4982273;28;20197;-77
2021/07/09 08:14:32;;;;;;;5.78;3.95;;;;;;;21.45;56.84;96119.84;4975233;28;20202;-77
2021/07/09 08:16:57;;;;;;;5.25;3.80;;;;;;;20.95;57.18;96118.50;4974866;28;20203;-76
2021/07/09 08:19:23;;;;;;;6.15;4.38;;;;;;;20.19;59.19;96109.78;4973459;28;20181;-76
2021/07/09 08:21:48;;;;;;;5.43;3.90;;;;;;;20.06;59.97;96106.06;4973402;28;20211;-76
2021/07/09 08:24:15;;;;;;;4.63;4.18;;;;;;;19.92;61.00;96114.06;4974423;28;20187;-77
2021/07/09 08:26:40;;;;;;;6.55;4.57;;;;;;;20.08;59.60;96108.50;4957466;28;20273;-77
2021/07/09 08:29:06;;;;;;;5.28;4.60;;;;;;;19.85;60.99;96108.75;4969383;28;20217;-77
2021/07/09 08:31:31;;;;;;;6.03;4.50;;;;;;;19.49;60.66;96108.81;4969564;28;20849;-77
2021/07/09 08:33:56;;;;;;;5.63;4.18;;;;;;;19.59;61.09;96113.78;4986541;28;20184;-76
2021/07/09 08:36:24;;;;;;;6.60;5.03;;;;;;;19.63;60.55;96109.78;4973259;28;20203;-77
2021/07/09 08:38:50;;;;;;;5.32;4.57;;;;;;;19.84;61.91;96107.09;4972996;28;20264;-77
2021/07/09 08:41:15;;;;;;;6.07;4.65;;;;;;;20.09;60.60;96108.31;4972055;28;20272;-77
2021/07/09 08:43:41;;;;;;;7.65;4.60;;;;;;;20.45;60.40;96111.78;4973597;28;20209;-77
2021/07/09 08:46:07;;;;;;;5.82;4.30;;;;;;;20.57;59.31;96107.56;4956499;28;20201;-77
2021/07/09 08:48:35;;;;;;;6.15;4.45;;;;;;;20.76;58.78;96111.31;4957101;28;20183;-75
2021/07/09 08:51:00;;;;;;;7.78;4.82;;;;;;;20.94;56.82;96114.22;4972203;28;20622;-78
2021/07/09 08:53:26;;;;;;;4.70;3.85;;;;;;;21.06;58.49;96123.19;4972299;28;20279;-75
2021/07/09 08:55:52;;;;;;;5.43;4.53;;;;;;;21.47;56.27;96117.84;4972168;28;20184;-77
2021/07/09 08:58:17;;;;;;;7.03;4.97;;;;;;;21.08;57.35;96115.06;4971980;28;20220;-77
2021/07/09 09:00:44;;;;;;;6.22;5.03;;;;;;;20.88;57.87;96125.56;4972179;28;20212;-77
2021/07/09 09:03:21;;;;;;;8.13;5.22;;;;;;;20.93;58.43;96133.69;4973084;28;20276;-77
2021/07/09 09:05:47;;;;;;;7.25;5.63;;;;;;;20.74;57.85;96131.81;4971224;28;20176;-77
2021/07/09 09:08:16;;;;;;;6.43;5.82;;;;;;;20.65;59.05;96131.16;4974110;28;20187;-77
2021/07/09 09:10:50;;;;;;;7.55;5.45;;;;;;;20.35;58.62;96136.66;4976720;28;20176;-77
2021/07/09 09:13:17;;;;;;;7.60;5.85;;;;;;;20.34;59.70;96142.94;4959446;28;20267;-78
2021/07/09 09:16:02;;;;;;;8.57;6.20;;;;;;;20.53;58.73;96136.19;4985797;28;20195;-77
2021/07/09 09:18:30;;;;;;;8.88;6.03;;;;;;;20.73;58.58;96138.09;4977948;28;20173;-77
2021/07/09 09:21:04;;;;;;;8.10;6.00;;;;;;;20.94;57.83;96145.91;4959225;28;20209;-77
2021/07/09 09:23:31;;;;;;;8.18;6.60;;;;;;;20.64;58.37;96146.19;4974574;28;20229;-76
2021/07/09 09:25:57;;;;;;;10.65;6.72;;;;;;;20.29;58.46;96141.88;4974384;28;20204;-77
2021/07/09 09:28:23;;;;;;;8.77;6.78;;;;;;;20.50;58.99;96136.59;4974587;28;20177;-78
2021/07/09 09:30:51;;;;;;;6.90;6.30;;;;;;;20.41;58.46;96137.72;4976018;28;20196;-76
2021/07/09 09:33:17;;;;;;;7.68;6.03;;;;;;;19.87;59.68;96135.72;4958595;28;20264;-77
2021/07/09 09:35:47;;;;;;;7.32;5.72;;;;;;;19.32;61.30;96144.31;4968328;28;20611;-75
2021/07/09 09:38:15;;;;;;;7.22;6.10;;;;;;;19.03;63.15;96146.03;4956100;28;20680;-76
2021/07/09 09:40:43;;;;;;;8.43;7.07;;;;;;;18.78;63.34;96142.91;4954727;28;20634;-75
2021/07/09 09:43:22;;;;;;;8.38;7.22;;;;;;;18.27;65.05;96150.69;4971363;28;20210;-76
2021/07/09 09:46:08;;;;;;;9.40;8.15;;;;;;;18.45;65.07;96147.69;4970897;28;20188;-77
2021/07/09 09:48:37;;;;;;;13.70;8.48;;;;;;;18.57;64.46;96148.09;4968162;28;20184;-76
2021/07/09 09:51:03;;;;;;;7.47;6.75;;;;;;;19.20;63.73;96136.91;4972321;28;20207;-77
2021/07/09 09:53:33;;;;;;;11.65;7.22;;;;;;;19.91;63.00;96134.34;4971870;28;20196;-77
2021/07/09 09:56:06;;;;;;;8.63;7.80;;;;;;;19.73;62.11;96141.91;4970253;28;20727;-76
2021/07/09 09:58:32;;;;;;;9.77;7.90;;;;;;;19.69;62.77;96138.81;4955879;28;20240;-77
2021/07/09 10:00:57;;;;;;;9.27;8.38;;;;;;;19.76;61.92;96141.50;4971122;28;20226;-77
2021/07/09 10:03:23;;;;;;;10.10;8.73;;;;;;;19.45;61.80;96133.91;4971217;28;20196;-76
2021/07/09 10:05:50;;;;;;;9.98;7.32;;;;;;;19.69;61.73;96138.00;4969671;28;20176;-76
2021/07/09 10:08:19;;;;;;;7.10;6.40;;;;;;;19.75;61.44;96137.25;4970906;28;20204;-77
2021/07/09 10:10:45;;;;;;;10.07;6.60;;;;;;;19.64;60.86;96137.75;4970344;28;20216;-77
2021/07/09 10:13:13;;;;;;;9.88;7.15;;;;;;;19.63;60.25;96136.94;4970840;28;20204;-76
2021/07/09 10:15:40;;;;;;;9.68;6.82;;;;;;;19.74;60.73;96127.72;4971232;28;20176;-77
2021/07/09 10:18:10;;;;;;;9.45;7.95;;;;;;;19.83;59.74;96129.19;4977034;28;20604;-79
2021/07/09 10:20:35;;;;;;;7.53;6.40;;;;;;;20.24;58.11;96129.28;4971765;28;20206;-76
2021/07/09 10:23:01;;;;;;;9.73;6.32;;;;;;;20.49;56.90;96127.00;4955206;28;20295;-78
2021/07/09 10:25:27;;;;;;;9.15;6.60;;;;;;;20.83;56.00;96125.34;4971276;28;20211;-78
2021/07/09 10:27:53;;;;;;;7.80;6.45;;;;;;;20.52;55.85;96126.63;4951517;28;20512;-78
2021/07/09 10:30:18;;;;;;;8.88;6.28;;;;;;;21.15;55.59;96124.66;4970073;28;20227;-78
2021/07/09 10:32:48;;;;;;;7.00;6.30;;;;;;;21.49;53.53;96122.91;4955004;28;20213;-77
2021/07/09 10:35:41;;;;;;;7.63;6.43;;;;;;;21.86;50.68;96118.03;4955139;28;20208;-77
2021/07/09 10:38:15;;;;;;;9.43;6.47;;;;;;;21.76;51.83;96124.56;4969469;28;20213;-77
2021/07/09 10:40:41;;;;;;;7.45;5.82;;;;;;;22.11;51.31;96124.38;4986911;28;20212;-78
2021/07/09 10:43:10;;;;;;;6.22;5.63;;;;;;;22.03;51.22;96127.19;4970756;28;20209;-77
2021/07/09 10:45:36;;;;;;;6.07;5.47;;;;;;;21.90;51.78;96119.25;4971015;28;20252;-78
2021/07/09 10:48:04;;;;;;;9.35;6.22;;;;;;;21.95;51.02;96122.91;4955029;28;20235;-79
2021/07/09 10:50:46;;;;;;;8.68;6.38;;;;;;;21.91;50.19;96127.00;4970789;28;20703;-78
2021/07/09 10:53:11;;;;;;;7.03;6.38;;;;;;;22.13;49.20;96122.31;4975226;28;20203;-77
2021/07/09 10:56:13;;;;;;;7.65;6.28;;;;;;;22.51;49.18;96114.50;4974416;28;20177;-76
2021/07/09 10:58:40;;;;;;;6.78;6.18;;;;;;;22.10;48.69;96114.81;4974487;28;20195;-76
2021/07/09 11:01:05;;;;;;;6.75;5.38;;;;;;;21.39;50.98;96127.78;4979169;28;20217;-76
2021/07/09 11:03:35;;;;;;;6.10;5.50;;;;;;;22.02;51.12;96121.09;4973832;28;20208;-76
2021/07/09 11:06:02;;;;;;;5.82;5.25;;;;;;;22.01;50.05;96119.47;4953231;28;20462;-77
2021/07/09 11:08:30;;;;;;;9.23;4.85;;;;;;;22.09;49.35;96115.03;4975436;28;20180;-77
2021/07/09 11:10:59;;;;;;;6.57;4.43;;;;;;;22.30;49.87;96128.00;4971231;28;20539;-76
2021/07/09 11:13:40;;;;;;;5.80;4.00;;;;;;;22.43;47.88;96116.56;4957287;28;20276;-76
2021/07/09 11:16:18;;;;;;;4.53;4.13;;;;;;;;;;4967072;28;20191;-77
2021/07/09 11:18:59;;;;;;;5.15;4.18;;;;;;;21.72;48.94;96130.44;4975170;28;20680;-77
2021/07/09 11:21:30;;;;;;;4.82;3.67;;;;;;;21.76;48.04;96118.47;4972623;28;20217;-76
2021/07/09 11:24:01;;;;;;;6.50;3.95;;;;;;;21.53;49.93;96118.84;4973434;28;21756;-76
2021/07/09 11:26:27;;;;;;;5.53;3.72;;;;;;;21.96;50.25;96110.50;4973017;28;20228;-77
2021/07/09 11:28:53;;;;;;;4.28;3.78;;;;;;;21.98;51.15;96114.56;4973700;28;20192;-76
2021/07/09 11:31:32;;;;;;;4.10;3.67;;;;;;;22.74;50.17;96113.22;4973913;28;20181;-75